Time;durP1;ratioP1;P1;durP2;ratioP2;P2;SDS_P1;SDS_P2;PMS_P1;PMS_P2;Temp;Humidity;BMP_temperature;BMP_pressure;BME280_temperature;BME280_humidity;BME280_pressure;Samples;Min_cycle;Max_cycle;Signal;HPM_P1;HPM_P2
2020/12/30 00:00:54;;;;;;;10.63;5.43;;;3.40;99.90;;;;;;5055185;28;20071;-77
2020/12/30 00:03:20;;;;;;;9.07;5.93;;;3.40;99.90;;;;;;5055339;28;20044;-76
2020/12/30 00:05:47;;;;;;;8.30;5.90;;;3.40;99.90;;;;;;5054449;28;20032;-76
2020/12/30 00:08:13;;;;;;;10.63;6.55;;;3.40;99.90;;;;;;5043059;28;20040;-76
2020/12/30 00:10:39;;;;;;;10.48;7.10;;;3.30;99.90;;;;;;5063929;28;20033;-76
2020/12/30 00:13:06;;;;;;;14.13;7.25;;;3.30;99.90;;;;;;5063532;28;20045;-77
2020/12/30 00:15:32;;;;;;;10.73;7.75;;;3.30;99.90;;;;;;5062472;28;20033;-76
2020/12/30 00:17:58;;;;;;;13.38;8.15;;;3.30;99.90;;;;;;5055006;28;20039;-76
2020/12/30 00:20:25;;;;;;;18.15;9.00;;;3.20;99.90;;;;;;5054537;28;20040;-79
2020/12/30 00:22:51;;;;;;;13.05;8.52;;;3.20;99.90;;;;;;5054096;28;20024;-76
2020/12/30 00:25:17;;;;;;;14.30;8.75;;;3.20;99.90;;;;;;5026896;28;20048;-76
2020/12/30 00:27:44;;;;;;;16.15;8.15;;;3.20;99.90;;;;;;5054068;28;20037;-76
2020/12/30 00:30:13;;;;;;;16.77;8.80;;;3.20;99.90;;;;;;5062145;28;20048;-76
2020/12/30 00:32:43;;;;;;;14.60;9.25;;;3.30;99.90;;;;;;5072969;28;20580;-75
2020/12/30 00:35:10;;;;;;;14.10;8.73;;;3.20;99.90;;;;;;5056557;28;20045;-75
2020/12/30 00:37:37;;;;;;;12.43;8.75;;;3.30;99.90;;;;;;5050844;28;20051;-77
2020/12/30 00:40:04;;;;;;;17.17;9.23;;;3.30;99.90;;;;;;5070916;28;20040;-77
2020/12/30 00:42:36;;;;;;;13.13;8.32;;;3.40;99.90;;;;;;5067065;28;20029;-77
2020/12/30 00:45:05;;;;;;;16.60;8.50;;;3.40;99.90;;;;;;5058196;28;20035;-77
2020/12/30 00:47:31;;;;;;;10.60;7.60;;;3.40;99.90;;;;;;5068850;28;20041;-77
2020/12/30 00:49:57;;;;;;;13.40;7.75;;;3.50;99.90;;;;;;5053959;28;20035;-77
2020/12/30 00:52:26;;;;;;;13.95;8.80;;;3.60;99.90;;;;;;5019064;28;20482;-77
2020/12/30 00:54:56;;;;;;;13.87;8.07;;;3.60;99.90;;;;;;5038594;28;20378;-76
2020/12/30 00:57:36;;;;;;;16.50;8.52;;;3.50;99.90;;;;;;5050518;28;20375;-77
2020/12/30 01:00:03;;;;;;;12.27;7.43;;;3.50;99.90;;;;;;5054442;28;20036;-76
2020/12/30 01:02:49;;;;;;;11.02;8.13;;;3.60;99.90;;;;;;5050378;28;20398;-76
2020/12/30 01:05:15;;;;;;;12.07;7.43;;;3.60;99.90;;;;;;5065840;28;20032;-76
2020/12/30 01:07:41;;;;;;;12.02;8.13;;;3.60;99.90;;;;;;5034856;28;20037;-76
2020/12/30 01:10:08;;;;;;;12.10;8.05;;;3.60;99.90;;;;;;5052405;28;20035;-76
2020/12/30 01:12:37;;;;;;;13.73;7.88;;;3.60;99.90;;;;;;5052899;28;20051;-75
2020/12/30 01:15:05;;;;;;;11.15;7.10;;;3.50;99.90;;;;;;5047732;28;20039;-76
2020/12/30 01:17:31;;;;;;;11.27;7.63;;;3.50;99.90;;;;;;5060679;28;20044;-78
2020/12/30 01:19:57;;;;;;;9.18;6.53;;;3.50;99.90;;;;;;5053620;28;20029;-75
2020/12/30 01:22:23;;;;;;;12.18;7.50;;;3.50;99.90;;;;;;5035360;28;20032;-76
2020/12/30 01:24:50;;;;;;;12.48;6.60;;;3.40;99.90;;;;;;5036865;28;20055;-76
2020/12/30 01:27:16;;;;;;;11.18;6.55;;;3.40;99.90;;;;;;5043203;28;20033;-77
2020/12/30 01:29:42;;;;;;;12.05;6.00;;;3.50;99.90;;;;;;5052598;28;20142;-77
2020/12/30 01:32:08;;;;;;;9.85;6.50;;;3.40;99.90;;;;;;5057930;28;20048;-76
2020/12/30 01:34:34;;;;;;;11.68;6.55;;;3.50;99.90;;;;;;5090534;28;20043;-76
2020/12/30 01:37:01;;;;;;;8.95;6.55;;;3.50;99.90;;;;;;5079732;28;20089;-76
2020/12/30 01:39:27;;;;;;;11.82;6.88;;;3.50;99.90;;;;;;5081095;28;20036;-77
2020/12/30 01:41:59;;;;;;;13.15;6.55;;;3.50;99.90;;;;;;5071606;28;20033;-76
2020/12/30 01:44:25;;;;;;;;;;;3.50;99.90;;;;;;5081222;28;20036;-76
2020/12/30 01:46:53;;;;;;;13.40;6.90;;;3.50;99.90;;;;;;5072871;28;19909;-76
2020/12/30 01:49:21;;;;;;;199.55;94.93;;;3.50;99.90;;;;;;5072387;28;20031;-79
2020/12/30 01:51:51;;;;;;;117.93;58.50;;;3.60;99.90;;;;;;5074590;28;20381;-76
2020/12/30 01:54:17;;;;;;;51.65;26.75;;;3.60;99.90;;;;;;5091310;28;20032;-76
2020/12/30 01:56:45;;;;;;;107.32;52.28;;;3.60;99.90;;;;;;5081683;28;20039;-76
2020/12/30 01:59:14;;;;;;;283.40;149.48;;;3.60;99.90;;;;;;5079997;28;20024;-76
2020/12/30 02:01:44;;;;;;;483.20;261.58;;;3.60;99.90;;;;;;5085299;28;20029;-76
2020/12/30 02:04:18;;;;;;;163.90;71.57;;;3.60;99.90;;;;;;5082311;28;20044;-76
2020/12/30 02:06:45;;;;;;;45.47;22.13;;;3.60;99.90;;;;;;5087496;28;20032;-76
2020/12/30 02:09:11;;;;;;;42.05;21.20;;;3.60;99.90;;;;;;5073902;28;20039;-76
2020/12/30 02:11:37;;;;;;;39.80;21.85;;;3.70;99.90;;;;;;5072043;28;20028;-77
2020/12/30 02:14:13;;;;;;;24.73;14.00;;;3.70;99.90;;;;;;5072434;28;20028;-76
2020/12/30 02:16:50;;;;;;;167.65;83.18;;;3.70;99.90;;;;;;5072116;28;20041;-76
2020/12/30 02:19:17;;;;;;;50.35;27.83;;;3.70;99.90;;;;;;5071048;28;20032;-76
2020/12/30 02:21:44;;;;;;;24.90;13.43;;;3.70;99.90;;;;;;5071406;28;20047;-76
2020/12/30 02:24:26;;;;;;;23.75;12.70;;;3.70;99.90;;;;;;5071191;28;20036;-77
2020/12/30 02:26:53;;;;;;;33.08;17.13;;;3.70;99.90;;;;;;5072294;28;20021;-76
2020/12/30 02:29:20;;;;;;;15.93;8.82;;;3.70;99.90;;;;;;5072646;28;20040;-76
2020/12/30 02:31:48;;;;;;;45.65;24.85;;;3.70;99.90;;;;;;5062086;28;20641;-76
2020/12/30 02:34:14;;;;;;;87.38;42.70;;;3.70;99.90;;;;;;5036536;28;20048;-76
2020/12/30 02:36:40;;;;;;;55.28;31.35;;;3.70;99.90;;;;;;5048539;28;20048;-76
2020/12/30 02:39:07;;;;;;;47.60;24.05;;;3.70;99.90;;;;;;5052228;28;20029;-77
2020/12/30 02:41:33;;;;;;;69.40;36.85;;;3.80;99.90;;;;;;5051444;28;20059;-77
2020/12/30 02:44:02;;;;;;;39.47;21.08;;;3.80;99.90;;;;;;5052358;28;20045;-77
2020/12/30 02:46:29;;;;;;;27.67;15.65;;;3.80;99.90;;;;;;5034115;28;20066;-77
2020/12/30 02:48:55;;;;;;;15.55;10.07;;;3.80;99.90;;;;;;5052039;28;20033;-76
2020/12/30 02:51:21;;;;;;;16.33;8.90;;;3.80;99.90;;;;;;5052047;28;20037;-76
2020/12/30 02:53:47;;;;;;;12.23;7.07;;;3.90;99.90;;;;;;5051596;28;20298;-76
2020/12/30 02:56:20;;;;;;;10.05;6.05;;;3.90;99.90;;;;;;5051490;28;20048;-76
2020/12/30 02:58:47;;;;;;;10.82;6.20;;;3.90;99.90;;;;;;5047553;28;20041;-75
2020/12/30 03:01:14;;;;;;;17.60;10.20;;;4.00;99.90;;;;;;5058588;28;20025;-77
2020/12/30 03:03:41;;;;;;;8.05;5.35;;;4.00;99.90;;;;;;5051226;28;20041;-76
2020/12/30 03:06:09;;;;;;;15.55;10.65;;;4.00;99.90;;;;;;5033525;28;20055;-76
2020/12/30 03:08:36;;;;;;;37.70;21.95;;;4.00;99.90;;;;;;5017067;28;20052;-76
2020/12/30 03:11:04;;;;;;;20.85;12.40;;;4.00;99.90;;;;;;5067380;28;20032;-77
2020/12/30 03:13:30;;;;;;;21.15;13.48;;;4.00;99.90;;;;;;5033448;28;20478;-77
2020/12/30 03:15:56;;;;;;;20.08;14.27;;;4.00;99.90;;;;;;5051398;28;20037;-78
2020/12/30 03:18:22;;;;;;;19.23;14.30;;;4.00;99.90;;;;;;5049285;28;20059;-76
2020/12/30 03:20:48;;;;;;;10.35;7.43;;;4.00;99.90;;;;;;5051045;28;20037;-77
2020/12/30 03:23:15;;;;;;;24.15;16.45;;;4.10;99.90;;;;;;5051735;28;20036;-77
2020/12/30 03:25:43;;;;;;;14.82;8.82;;;4.00;99.90;;;;;;5033201;28;20037;-78
2020/12/30 03:28:09;;;;;;;33.25;21.45;;;4.00;99.90;;;;;;5051846;28;20036;-76
2020/12/30 03:30:36;;;;;;;16.77;11.05;;;4.10;99.90;;;;;;5051695;28;20385;-78
2020/12/30 03:33:02;;;;;;;17.27;9.95;;;4.10;99.90;;;;;;5033580;28;20049;-76
2020/12/30 03:35:29;;;;;;;15.27;9.02;;;4.10;99.90;;;;;;5053197;28;20044;-78
2020/12/30 03:37:55;;;;;;;14.43;10.23;;;4.10;99.90;;;;;;5055401;28;20037;-76
2020/12/30 03:40:21;;;;;;;12.25;9.45;;;4.10;99.90;;;;;;5055067;28;20048;-77
2020/12/30 03:42:48;;;;;;;10.60;6.78;;;4.10;99.90;;;;;;5055074;28;20037;-76
2020/12/30 03:45:15;;;;;;;11.70;9.38;;;4.10;99.90;;;;;;5055033;28;20387;-76
2020/12/30 03:47:41;;;;;;;17.15;12.52;;;4.00;99.90;;;;;;5054515;28;20025;-76
2020/12/30 03:50:07;;;;;;;17.23;10.73;;;4.10;99.90;;;;;;5055351;28;20067;-76
2020/12/30 03:52:33;;;;;;;10.15;8.25;;;4.00;99.90;;;;;;5060312;28;20040;-76
2020/12/30 03:55:00;;;;;;;14.63;10.80;;;4.00;99.90;;;;;;5062732;28;20040;-76
2020/12/30 03:57:26;;;;;;;12.95;10.93;;;4.00;99.90;;;;;;5054938;28;20037;-76
2020/12/30 03:59:52;;;;;;;12.73;7.80;;;4.10;99.90;;;;;;5036267;28;20040;-76
2020/12/30 04:02:19;;;;;;;10.02;6.90;;;4.10;99.90;;;;;;5046371;28;20041;-76
2020/12/30 04:04:45;;;;;;;7.70;5.20;;;4.00;99.90;;;;;;5052383;28;20040;-75
2020/12/30 04:07:11;;;;;;;9.10;5.63;;;4.10;99.90;;;;;;5055627;28;20389;-76
2020/12/30 04:09:38;;;;;;;11.23;6.60;;;4.10;99.90;;;;;;5036890;28;20036;-76
2020/12/30 04:12:04;;;;;;;12.88;7.40;;;4.10;99.90;;;;;;5056792;28;20036;-75
2020/12/30 04:14:31;;;;;;;12.52;6.60;;;4.10;99.90;;;;;;5054336;28;20048;-77
2020/12/30 04:16:57;;;;;;;6.50;3.97;;;4.10;99.90;;;;;;5062075;28;20047;-75
2020/12/30 04:19:23;;;;;;;8.55;4.63;;;4.10;99.90;;;;;;5054530;28;20044;-77
2020/12/30 04:21:50;;;;;;;9.35;4.43;;;4.10;99.90;;;;;;5054630;28;20466;-75
2020/12/30 04:24:16;;;;;;;11.45;7.43;;;4.10;99.90;;;;;;5054453;28;20036;-75
2020/12/30 04:26:42;;;;;;;8.38;4.57;;;4.10;99.90;;;;;;5055091;28;20033;-76
2020/12/30 04:29:08;;;;;;;6.10;4.55;;;4.10;99.90;;;;;;5067148;28;20055;-76
2020/12/30 04:31:36;;;;;;;9.32;4.70;;;4.10;99.90;;;;;;5053449;28;20045;-76
2020/12/30 04:34:06;;;;;;;7.10;5.28;;;4.00;99.90;;;;;;5053811;28;20041;-75
2020/12/30 04:36:32;;;;;;;6.43;4.50;;;4.00;99.90;;;;;;5035421;28;20049;-76
2020/12/30 04:38:58;;;;;;;6.30;4.07;;;4.10;99.90;;;;;;5036152;28;20041;-76
2020/12/30 04:41:33;;;;;;;10.32;4.90;;;4.00;99.90;;;;;;5062152;28;20037;-77
2020/12/30 04:44:04;;;;;;;9.40;4.70;;;4.00;99.90;;;;;;5059054;28;20043;-75
2020/12/30 04:46:30;;;;;;;7.85;4.70;;;4.00;99.90;;;;;;5039453;28;20032;-77
2020/12/30 04:48:58;;;;;;;7.13;4.75;;;3.90;99.90;;;;;;5067184;28;20513;-76
2020/12/30 04:51:28;;;;;;;8.40;4.72;;;4.00;99.90;;;;;;5036405;28;20040;-78
2020/12/30 04:53:59;;;;;;;6.00;4.00;;;4.00;99.90;;;;;;5019468;28;20482;-76
2020/12/30 04:57:04;;;;;;;9.02;4.97;;;4.00;99.90;;;;;;5068857;28;20036;-76
2020/12/30 04:59:35;;;;;;;8.25;4.68;;;4.00;99.90;;;;;;5061790;28;20048;-78
2020/12/30 05:02:10;;;;;;;10.52;4.75;;;4.00;99.90;;;;;;5045960;28;20041;-78
2020/12/30 05:04:38;;;;;;;5.50;3.90;;;4.00;99.90;;;;;;5053036;28;20029;-78
2020/12/30 05:07:14;;;;;;;7.82;3.90;;;4.00;99.90;;;;;;5053694;28;20037;-74
2020/12/30 05:09:43;;;;;;;9.45;4.25;;;4.00;99.90;;;;;;5053099;28;20092;-77
2020/12/30 05:12:20;;;;;;;8.10;4.18;;;4.00;99.90;;;;;;5035163;28;20048;-78
2020/12/30 05:14:46;;;;;;;6.20;3.80;;;4.00;99.90;;;;;;5053267;28;20033;-76
2020/12/30 05:17:14;;;;;;;8.45;4.25;;;4.10;99.90;;;;;;5035668;28;20044;-76
2020/12/30 05:19:42;;;;;;;6.90;4.13;;;4.10;99.90;;;;;;5052726;28;20371;-76
2020/12/30 05:22:17;;;;;;;8.75;3.80;;;4.10;99.90;;;;;;5045439;28;20052;-76
2020/12/30 05:24:45;;;;;;;7.85;4.40;;;4.10;99.90;;;;;;5061648;28;20033;-76
2020/12/30 05:27:13;;;;;;;6.93;3.33;;;4.10;99.90;;;;;;5046327;28;20051;-76
2020/12/30 05:29:51;;;;;;;6.32;3.03;;;4.00;99.90;;;;;;5052768;28;20040;-76
2020/12/30 05:32:18;;;;;;;5.95;3.13;;;4.00;99.90;;;;;;5054920;28;20486;-76
2020/12/30 05:34:46;;;;;;;6.72;3.65;;;4.00;99.90;;;;;;5052344;28;20056;-76
2020/12/30 05:37:14;;;;;;;7.07;3.17;;;4.00;99.90;;;;;;5034718;28;20056;-76
2020/12/30 05:39:41;;;;;;;6.03;3.53;;;4.00;99.90;;;;;;5034526;28;20394;-76
2020/12/30 05:42:19;;;;;;;7.43;2.72;;;4.00;99.90;;;;;;5034835;28;20037;-76
2020/12/30 05:44:47;;;;;;;5.10;2.88;;;4.00;99.90;;;;;;5052610;28;20025;-75
2020/12/30 05:47:23;;;;;;;4.20;3.08;;;4.00;99.90;;;;;;5054097;28;20393;-75
2020/12/30 05:49:55;;;;;;;9.10;3.10;;;4.00;99.90;;;;;;5054690;28;20036;-76
2020/12/30 05:52:26;;;;;;;5.95;3.65;;;3.90;99.90;;;;;;5054547;28;20036;-76
2020/12/30 05:54:57;;;;;;;;;;;3.90;99.90;;;;;;5034539;28;20055;-76
2020/12/30 05:57:33;;;;;;;6.22;3.13;;;3.80;99.90;;;;;;5056427;28;19987;-76
2020/12/30 06:00:08;;;;;;;6.03;3.10;;;3.70;99.90;;;;;;5062804;28;20024;-76
2020/12/30 06:02:42;;;;;;;;;;;3.70;99.90;;;;;;5035696;28;20036;-76
2020/12/30 06:05:34;;;;;;;6.43;2.55;;;3.60;99.90;;;;;;5052650;28;19916;-76
2020/12/30 06:08:00;;;;;;;5.07;3.30;;;3.60;99.90;;;;;;5049691;28;20044;-76
2020/12/30 06:10:28;;;;;;;7.65;3.30;;;3.60;99.90;;;;;;5052562;28;20052;-76
2020/12/30 06:12:55;;;;;;;6.10;3.30;;;3.60;99.90;;;;;;5052340;28;20033;-77
2020/12/30 06:15:23;;;;;;;5.45;2.85;;;3.70;99.90;;;;;;5066089;28;20037;-77
2020/12/30 06:17:58;;;;;;;6.97;2.70;;;3.70;99.90;;;;;;5055898;28;20043;-77
2020/12/30 06:20:36;;;;;;;7.85;2.85;;;3.80;99.90;;;;;;5054494;28;20045;-78
2020/12/30 06:23:02;;;;;;;5.38;3.10;;;3.90;99.90;;;;;;5052346;28;20406;-77
2020/12/30 06:25:31;;;;;;;8.32;3.47;;;4.00;99.90;;;;;;5044428;28;20043;-77
2020/12/30 06:28:02;;;;;;;4.22;2.88;;;3.90;99.90;;;;;;5041141;28;20651;-76
2020/12/30 06:30:28;;;;;;;6.13;3.15;;;4.00;99.90;;;;;;5052615;28;20037;-76
2020/12/30 06:33:00;;;;;;;8.75;4.07;;;3.90;99.90;;;;;;5058488;28;20044;-77
2020/12/30 06:35:29;;;;;;;24.70;10.60;;;3.80;99.90;;;;;;5057898;28;20033;-77
2020/12/30 06:37:56;;;;;;;18.98;8.77;;;3.80;99.90;;;;;;5051672;28;20040;-77
2020/12/30 06:40:24;;;;;;;10.10;5.95;;;3.70;99.90;;;;;;5049472;28;20033;-77
2020/12/30 06:42:56;;;;;;;7.55;3.92;;;3.70;99.90;;;;;;5033884;28;20029;-78
2020/12/30 06:45:44;;;;;;;8.38;5.38;;;3.60;99.90;;;;;;5052191;28;20052;-77
2020/12/30 06:48:11;;;;;;;12.93;7.45;;;3.60;99.90;;;;;;5051905;28;20036;-77
2020/12/30 06:50:38;;;;;;;18.42;9.75;;;3.50;99.90;;;;;;5034685;28;20036;-75
2020/12/30 06:53:24;;;;;;;10.13;4.85;;;3.50;99.90;;;;;;5063681;28;20033;-76
2020/12/30 06:55:52;;;;;;;10.30;5.55;;;3.50;99.90;;;;;;5058740;28;20032;-76
2020/12/30 06:58:50;;;;;;;9.55;6.00;;;3.50;99.90;;;;;;5034141;28;20028;-76
2020/12/30 07:01:21;;;;;;;11.00;5.28;;;3.50;99.90;;;;;;5037942;28;20037;-76
2020/12/30 07:03:49;;;;;;;10.52;5.30;;;3.50;99.90;;;;;;5038243;28;20397;-76
2020/12/30 07:06:24;;;;;;;10.98;4.07;;;3.50;99.90;;;;;;5053179;28;20029;-76
2020/12/30 07:08:52;;;;;;;7.68;4.80;;;3.60;99.90;;;;;;5053917;28;20466;-77
2020/12/30 07:11:43;;;;;;;5.53;2.85;;;3.70;99.90;;;;;;5054913;28;20474;-76
2020/12/30 07:14:20;;;;;;;5.78;4.40;;;3.70;99.90;;;;;;5056468;28;20029;-76
2020/12/30 07:16:55;;;;;;;6.40;3.25;;;3.60;99.90;;;;;;5055492;28;20033;-77
2020/12/30 07:19:32;;;;;;;5.85;2.53;;;3.60;99.90;;;;;;5021507;28;20052;-77
2020/12/30 07:22:04;;;;;;;4.85;3.15;;;3.60;99.90;;;;;;5050321;28;20044;-79
2020/12/30 07:24:39;;;;;;;8.52;3.25;;;3.60;99.90;;;;;;5055523;28;20032;-77
2020/12/30 07:27:08;;;;;;;6.63;3.05;;;3.60;99.90;;;;;;5055477;28;20048;-77
2020/12/30 07:29:34;;;;;;;5.53;3.45;;;3.60;99.90;;;;;;5054766;28;20040;-78
2020/12/30 07:32:03;;;;;;;5.93;3.60;;;3.60;99.90;;;;;;5055444;28;20057;-77
2020/12/30 07:34:31;;;;;;;6.82;3.60;;;3.60;99.90;;;;;;5068191;28;20466;-77
2020/12/30 07:36:58;;;;;;;6.63;3.53;;;3.70;99.90;;;;;;5052315;28;20041;-77
2020/12/30 07:39:25;;;;;;;8.93;3.58;;;3.70;99.90;;;;;;5054722;28;20033;-76
2020/12/30 07:41:52;;;;;;;8.98;3.63;;;3.70;99.90;;;;;;5036667;28;20517;-77
2020/12/30 07:44:18;;;;;;;5.63;2.97;;;3.70;99.90;;;;;;5037344;28;20048;-77
2020/12/30 07:46:44;;;;;;;6.75;3.53;;;3.80;99.90;;;;;;5035446;28;20394;-77
2020/12/30 07:49:15;;;;;;;6.93;3.10;;;3.90;99.90;;;;;;5055215;28;20029;-76
2020/12/30 07:51:47;;;;;;;4.15;3.00;;;3.90;99.90;;;;;;5036488;28;20041;-77
2020/12/30 07:54:14;;;;;;;7.82;3.17;;;3.90;99.90;;;;;;5070364;28;20029;-77
2020/12/30 07:56:41;;;;;;;7.82;3.33;;;4.00;99.90;;;;;;5055683;28;20033;-78
2020/12/30 07:59:07;;;;;;;7.53;3.03;;;4.00;99.90;;;;;;5056135;28;20041;-76
2020/12/30 08:01:34;;;;;;;6.05;3.35;;;4.00;99.90;;;;;;5058466;28;20048;-78
2020/12/30 08:04:09;;;;;;;5.30;2.78;;;4.10;99.90;;;;;;5037328;28;20037;-77
2020/12/30 08:06:46;;;;;;;5.50;2.80;;;4.10;99.90;;;;;;5068246;28;20033;-77
2020/12/30 08:09:13;;;;;;;5.55;3.22;;;4.10;99.90;;;;;;5054556;28;20045;-78
2020/12/30 08:11:54;;;;;;;7.07;2.97;;;4.10;99.90;;;;;;5046797;28;20029;-77
2020/12/30 08:14:22;;;;;;;7.53;3.80;;;4.20;99.90;;;;;;5019766;28;20037;-77
2020/12/30 08:17:14;;;;;;;7.68;3.10;;;4.20;99.90;;;;;;5053973;28;20036;-76
2020/12/30 08:19:45;;;;;;;6.88;3.20;;;4.20;99.90;;;;;;5053064;28;20037;-77
2020/12/30 08:22:25;;;;;;;5.10;3.22;;;4.20;99.90;;;;;;5065998;28;20021;-77
2020/12/30 08:24:53;;;;;;;6.25;3.05;;;4.30;99.90;;;;;;5054032;28;20398;-77
2020/12/30 08:27:30;;;;;;;5.45;3.60;;;4.20;99.90;;;;;;5057802;28;20029;-74
2020/12/30 08:30:01;;;;;;;13.02;7.00;;;4.30;99.90;;;;;;5064388;28;20032;-75
2020/12/30 08:32:33;;;;;;;11.32;6.65;;;4.30;99.90;;;;;;5074607;28;20052;-77
2020/12/30 08:35:18;;;;;;;25.35;13.57;;;4.30;99.90;;;;;;5081921;28;20040;-75
2020/12/30 08:37:47;;;;;;;11.82;6.32;;;4.20;99.90;;;;;;5089367;28;20040;-77
2020/12/30 08:40:24;;;;;;;8.98;4.70;;;4.20;99.90;;;;;;5081632;28;20032;-78
2020/12/30 08:42:53;;;;;;;10.55;6.25;;;4.20;99.90;;;;;;5090671;28;20032;-77
2020/12/30 08:45:29;;;;;;;18.65;9.63;;;4.20;99.90;;;;;;5091311;28;20047;-77
2020/12/30 08:48:15;;;;;;;12.63;8.32;;;4.30;99.90;;;;;;5087052;28;20461;-78
2020/12/30 08:50:42;;;;;;;32.53;16.55;;;4.30;99.90;;;;;;5073600;28;20043;-79
2020/12/30 08:53:08;;;;;;;10.40;6.25;;;4.30;99.90;;;;;;5091119;28;20044;-79
2020/12/30 08:55:35;;;;;;;31.73;18.38;;;4.40;99.90;;;;;;5074144;28;20036;-80
2020/12/30 08:58:01;;;;;;;14.23;9.48;;;4.40;99.90;;;;;;5088929;28;20049;-76
2020/12/30 09:00:38;;;;;;;9.00;5.03;;;4.50;99.90;;;;;;5088542;28;20051;-78
2020/12/30 09:03:15;;;;;;;15.93;9.93;;;4.50;99.90;;;;;;5073710;28;20039;-78
2020/12/30 09:05:54;;;;;;;10.32;5.03;;;4.60;99.90;;;;;;5073447;28;20381;-78
2020/12/30 09:08:25;;;;;;;16.38;8.13;;;4.60;99.90;;;;;;5072376;28;20048;-78
2020/12/30 09:10:51;;;;;;;;;;;4.70;99.90;;;;;;5073773;28;20059;-78
2020/12/30 09:13:20;;;;;;;27.00;14.85;;;4.70;99.90;;;;;;5090556;28;19908;-76
2020/12/30 09:15:54;;;;;;;11.77;5.97;;;4.80;99.90;;;;;;5087266;28;20389;-77
2020/12/30 09:18:28;;;;;;;26.17;11.00;;;4.80;99.90;;;;;;5087828;28;20066;-77
2020/12/30 09:20:54;;;;;;;38.10;18.45;;;4.80;99.90;;;;;;5082979;28;20029;-76
2020/12/30 09:23:22;;;;;;;9.27;5.88;;;4.80;99.90;;;;;;5071450;28;20048;-77
2020/12/30 09:25:49;;;;;;;10.10;4.78;;;4.90;99.90;;;;;;5071078;28;20044;-81
2020/12/30 09:28:26;;;;;;;7.80;4.80;;;4.90;99.90;;;;;;5091775;28;20036;-77
2020/12/30 09:30:55;;;;;;;12.07;6.57;;;4.90;99.90;;;;;;5077612;28;20025;-76
2020/12/30 09:33:25;;;;;;;13.32;6.80;;;5.00;99.90;;;;;;5054386;28;20025;-75
2020/12/30 09:35:52;;;;;;;7.38;4.63;;;5.10;99.90;;;;;;5052971;28;20028;-78
2020/12/30 09:38:23;;;;;;;11.43;6.43;;;5.10;99.90;;;;;;5053257;28;20028;-77
2020/12/30 09:40:51;;;;;;;;;;;5.10;99.90;;;;;;5049794;28;20041;-77
2020/12/30 09:43:22;;;;;;;6.00;3.75;;;5.20;99.90;;;;;;5021068;28;19909;-77
2020/12/30 09:45:55;;;;;;;9.05;4.03;;;5.30;99.90;;;;;;5043694;28;20462;-76
2020/12/30 09:48:21;;;;;;;11.10;4.82;;;5.40;99.90;;;;;;5053388;28;20055;-77
2020/12/30 09:50:51;;;;;;;8.52;3.95;;;5.50;99.90;;;;;;5036475;28;20029;-79
2020/12/30 09:53:17;;;;;;;11.68;5.78;;;5.60;99.90;;;;;;5059496;28;20032;-78
2020/12/30 09:55:48;;;;;;;7.72;3.90;;;5.70;99.90;;;;;;5034182;28;20041;-77
2020/12/30 09:58:14;;;;;;;7.80;3.20;;;5.60;99.90;;;;;;5052791;28;20037;-78
2020/12/30 10:00:41;;;;;;;9.90;5.50;;;5.70;99.90;;;;;;5052903;28;20362;-78
2020/12/30 10:03:08;;;;;;;14.88;8.73;;;5.70;99.90;;;;;;5048993;28;20037;-77
2020/12/30 10:05:35;;;;;;;10.85;5.78;;;5.70;99.90;;;;;;5034927;28;20041;-77
2020/12/30 10:08:01;;;;;;;7.05;4.22;;;5.60;99.90;;;;;;5052925;28;20033;-77
2020/12/30 10:10:27;;;;;;;8.45;4.20;;;5.70;99.90;;;;;;5052842;28;20025;-78
2020/12/30 10:12:54;;;;;;;7.60;3.75;;;5.70;99.90;;;;;;5052429;28;20103;-77
2020/12/30 10:15:20;;;;;;;11.82;3.83;;;5.80;99.90;;;;;;5035055;28;20037;-77
2020/12/30 10:17:47;;;;;;;5.95;2.70;;;5.90;99.90;;;;;;5034334;28;20036;-78
2020/12/30 10:20:13;;;;;;;5.38;2.70;;;5.90;99.90;;;;;;5052861;28;20036;-78
2020/12/30 10:22:41;;;;;;;6.10;2.88;;;6.00;99.90;;;;;;5052172;28;20365;-78
2020/12/30 10:25:09;;;;;;;5.80;2.80;;;5.90;99.90;;;;;;5052688;28;20374;-77
2020/12/30 10:27:36;;;;;;;4.93;2.53;;;5.90;99.90;;;;;;5053137;28;20029;-79
2020/12/30 10:30:04;;;;;;;5.40;2.78;;;5.90;99.90;;;;;;5037802;28;20351;-77
2020/12/30 10:32:30;;;;;;;6.97;3.15;;;5.90;99.90;;;;;;5079726;28;20044;-77
2020/12/30 10:34:56;;;;;;;9.27;3.55;;;5.80;99.90;;;;;;5073797;28;20257;-78
2020/12/30 10:37:22;;;;;;;4.70;3.03;;;5.70;99.90;;;;;;5072841;28;20024;-77
2020/12/30 10:39:49;;;;;;;6.20;2.88;;;5.70;99.90;;;;;;5081114;28;20031;-76
2020/12/30 10:42:16;;;;;;;6.82;2.88;;;5.70;99.90;;;;;;5086539;28;20477;-78
2020/12/30 10:44:43;;;;;;;7.60;3.05;;;5.60;99.90;;;;;;5070282;28;20417;-76
2020/12/30 10:47:11;;;;;;;8.00;2.88;;;5.60;99.90;;;;;;5073091;28;20028;-77
2020/12/30 10:49:38;;;;;;;5.30;3.20;;;5.60;99.90;;;;;;5071411;28;20037;-79
2020/12/30 10:52:04;;;;;;;7.32;3.55;;;5.70;99.90;;;;;;5071045;28;20037;-77
2020/12/30 10:54:30;;;;;;;7.78;3.10;;;5.70;99.90;;;;;;5072493;28;20032;-76
2020/12/30 10:56:57;;;;;;;6.47;2.70;;;5.80;99.90;;;;;;5071596;28;20333;-80
2020/12/30 10:59:23;;;;;;;6.50;2.45;;;5.80;99.90;;;;;;5086590;28;20092;-76
2020/12/30 11:01:51;;;;;;;21.77;11.90;;;5.70;99.90;;;;;;5071957;28;20119;-77
2020/12/30 11:04:18;;;;;;;24.50;12.32;;;5.70;99.90;;;;;;5071709;28;20029;-78
2020/12/30 11:06:44;;;;;;;19.83;12.23;;;5.90;99.90;;;;;;5071645;28;20039;-76
2020/12/30 11:09:11;;;;;;;16.65;9.57;;;5.90;99.90;;;;;;5072513;28;20398;-76
2020/12/30 11:11:37;;;;;;;30.83;15.80;;;6.00;99.90;;;;;;5071505;28;20033;-78
2020/12/30 11:14:04;;;;;;;10.80;5.38;;;6.00;99.90;;;;;;5070383;28;20450;-77
2020/12/30 11:16:30;;;;;;;10.20;5.82;;;6.00;99.90;;;;;;5082949;28;20028;-76
2020/12/30 11:18:56;;;;;;;9.35;6.00;;;6.00;99.90;;;;;;5071011;28;20032;-77
2020/12/30 11:21:23;;;;;;;15.02;7.80;;;6.10;99.90;;;;;;5069552;28;20036;-77
2020/12/30 11:23:49;;;;;;;6.20;3.20;;;6.10;99.90;;;;;;5071243;28;20031;-77
2020/12/30 11:26:15;;;;;;;6.40;3.45;;;6.20;99.90;;;;;;5071242;28;20037;-78
2020/12/30 11:28:41;;;;;;;5.93;2.40;;;6.30;99.90;;;;;;5053443;28;20039;-79
2020/12/30 11:31:08;;;;;;;4.38;2.28;;;6.40;99.90;;;;;;5084859;28;20373;-78
2020/12/30 11:33:34;;;;;;;6.82;2.20;;;6.40;99.90;;;;;;5049463;28;20045;-79
2020/12/30 11:36:01;;;;;;;3.90;2.15;;;6.40;99.90;;;;;;5034019;28;20323;-79
2020/12/30 11:38:27;;;;;;;4.85;2.17;;;6.40;99.90;;;;;;5060534;28;20493;-79
2020/12/30 11:40:53;;;;;;;13.35;6.40;;;6.40;99.90;;;;;;5032449;28;20398;-80
2020/12/30 11:43:20;;;;;;;9.38;4.35;;;6.20;99.90;;;;;;5053008;28;20055;-79
2020/12/30 11:45:46;;;;;;;9.00;4.80;;;6.30;99.90;;;;;;5035899;28;20036;-80
2020/12/30 11:48:12;;;;;;;7.93;3.00;;;6.40;99.90;;;;;;5064269;28;20056;-78
2020/12/30 11:50:38;;;;;;;4.82;2.50;;;6.50;99.90;;;;;;5051425;28;20056;-81
2020/12/30 11:53:05;;;;;;;6.75;2.30;;;6.60;99.90;;;;;;5044074;28;20044;-79
2020/12/30 11:55:31;;;;;;;3.92;1.75;;;6.70;99.90;;;;;;5035297;28;20057;-79
2020/12/30 11:57:57;;;;;;;7.15;2.15;;;6.80;99.90;;;;;;5044557;28;20041;-80
2020/12/30 12:00:24;;;;;;;8.05;2.63;;;6.80;99.90;;;;;;5036963;28;20406;-79
2020/12/30 12:02:50;;;;;;;6.53;2.45;;;6.70;99.90;;;;;;5034441;28;20466;-80
2020/12/30 12:05:16;;;;;;;7.53;3.55;;;6.70;99.90;;;;;;5045979;28;20033;-77
2020/12/30 12:07:43;;;;;;;15.50;7.85;;;6.70;99.90;;;;;;5055552;28;20032;-78
2020/12/30 12:10:10;;;;;;;44.50;23.08;;;6.60;99.90;;;;;;5051789;28;20044;-76
2020/12/30 12:12:37;;;;;;;19.58;10.60;;;6.60;99.90;;;;;;5054121;28;20474;-79
2020/12/30 12:15:07;;;;;;;7.15;4.20;;;6.50;99.90;;;;;;5055092;28;20032;-78
2020/12/30 12:17:34;;;;;;;5.97;2.60;;;6.60;99.90;;;;;;5054074;28;20044;-75
2020/12/30 12:20:00;;;;;;;17.67;10.13;;;6.50;99.90;;;;;;5036089;28;20052;-76
2020/12/30 12:22:26;;;;;;;7.32;3.83;;;6.40;99.90;;;;;;5062180;28;20028;-76
2020/12/30 12:24:53;;;;;;;5.20;2.45;;;6.30;99.90;;;;;;5053498;28;20037;-76
2020/12/30 12:27:19;;;;;;;9.55;2.90;;;6.20;99.90;;;;;;5054316;28;20059;-77
2020/12/30 12:29:48;;;;;;;6.40;2.85;;;6.20;99.90;;;;;;5071060;28;20032;-75
2020/12/30 12:32:20;;;;;;;13.40;6.95;;;6.20;99.90;;;;;;5057934;28;20508;-77
2020/12/30 12:34:52;;;;;;;6.95;3.30;;;6.20;99.90;;;;;;5063118;28;20039;-76
2020/12/30 12:37:19;;;;;;;8.60;3.38;;;6.00;99.90;;;;;;5036381;28;20036;-76
2020/12/30 12:39:47;;;;;;;11.18;4.57;;;6.00;99.90;;;;;;5035701;28;20059;-76
2020/12/30 12:42:14;;;;;;;10.02;3.75;;;6.00;99.90;;;;;;5053532;28;20033;-76
2020/12/30 12:44:41;;;;;;;10.45;5.47;;;5.90;99.90;;;;;;5053495;28;20029;-77
2020/12/30 12:47:07;;;;;;;5.47;2.47;;;5.90;99.90;;;;;;5035543;28;20049;-76
2020/12/30 12:49:33;;;;;;;5.53;3.58;;;5.80;99.90;;;;;;5038503;28;20040;-76
2020/12/30 12:52:00;;;;;;;7.20;3.67;;;5.80;99.90;;;;;;5042414;28;20033;-76
2020/12/30 12:54:27;;;;;;;7.80;4.60;;;5.70;99.90;;;;;;5057847;28;20037;-76
2020/12/30 12:56:59;;;;;;;6.50;2.95;;;5.70;99.90;;;;;;5055281;28;20037;-76
2020/12/30 12:59:26;;;;;;;6.38;3.67;;;5.60;99.90;;;;;;5067506;28;20043;-76